Time;durP1;ratioP1;P1;durP2;ratioP2;P2;SDS_P1;SDS_P2;PMS_P1;PMS_P2;Temp;Humidity;BMP_temperature;BMP_pressure;BME280_temperature;BME280_humidity;BME280_pressure;Samples;Min_cycle;Max_cycle;Signal;HPM_P1;HPM_P2
2022/08/24 00:01:58;;;;;;;4.38;3.13;;;21.60;64.30;;;;;;4967554;28;20033;-80
2022/08/24 00:04:23;;;;;;;4.22;3.13;;;21.60;64.40;;;;;;4984631;28;20041;-80
2022/08/24 00:06:49;;;;;;;4.53;2.30;;;21.50;64.60;;;;;;4969842;28;20263;-80
2022/08/24 00:09:15;;;;;;;2.95;2.00;;;21.40;64.40;;;;;;4963493;28;20034;-80
2022/08/24 00:11:41;;;;;;;5.60;1.90;;;21.50;66.10;;;;;;4965893;28;20474;-80
2022/08/24 00:14:07;;;;;;;3.85;2.13;;;21.50;67.20;;;;;;4966034;28;20121;-80
2022/08/24 00:16:34;;;;;;;6.65;2.88;;;21.50;67.20;;;;;;4969659;28;20030;-80
2022/08/24 00:19:00;;;;;;;7.55;3.00;;;21.50;65.80;;;;;;4949386;28;20123;-81
2022/08/24 00:21:25;;;;;;;8.68;3.28;;;21.40;65.50;;;;;;4964042;28;20054;-80
2022/08/24 00:23:52;;;;;;;4.32;3.00;;;21.30;64.70;;;;;;4971226;28;20555;-80
2022/08/24 00:26:17;;;;;;;5.03;3.30;;;21.20;65.40;;;;;;4972277;28;20037;-80
2022/08/24 00:28:43;;;;;;;4.28;2.72;;;21.10;65.40;;;;;;4968728;28;20034;-81
2022/08/24 00:31:09;;;;;;;4.93;2.90;;;21.10;65.60;;;;;;4980372;28;20482;-80
2022/08/24 00:33:35;;;;;;;3.72;2.65;;;21.10;66.20;;;;;;4968811;28;20033;-80
2022/08/24 00:36:01;;;;;;;4.40;2.72;;;21.00;65.70;;;;;;4970237;28;20042;-80
2022/08/24 00:38:26;;;;;;;4.32;2.60;;;21.00;65.40;;;;;;4957852;28;20034;-80
2022/08/24 00:40:52;;;;;;;2.58;1.70;;;21.00;65.40;;;;;;4980679;28;20072;-79
2022/08/24 00:43:21;;;;;;;2.03;1.70;;;21.00;65.00;;;;;;4966832;28;20101;-80
2022/08/24 00:45:56;;;;;;;4.10;2.28;;;21.00;65.20;;;;;;4951619;28;20026;-80
2022/08/24 00:48:26;;;;;;;3.90;2.08;;;20.90;65.10;;;;;;4961742;28;20436;-80
2022/08/24 00:51:18;;;;;;;3.63;2.25;;;20.90;66.00;;;;;;4974618;28;20086;-80
2022/08/24 00:53:47;;;;;;;2.45;2.20;;;20.90;66.50;;;;;;4972102;28;20034;-79
2022/08/24 00:56:20;;;;;;;2.80;2.13;;;20.90;67.60;;;;;;4970699;28;20133;-80
2022/08/24 00:58:48;;;;;;;2.13;1.95;;;20.80;66.60;;;;;;4955326;28;20026;-80
2022/08/24 01:01:13;;;;;;;4.50;2.15;;;20.70;65.90;;;;;;4950848;28;20537;-79
2022/08/24 01:03:41;;;;;;;6.45;3.25;;;20.60;66.10;;;;;;4968382;28;20034;-79
2022/08/24 01:06:06;;;;;;;5.15;4.03;;;20.60;66.00;;;;;;4958810;28;20042;-79
2022/08/24 01:08:33;;;;;;;5.07;3.25;;;20.50;66.30;;;;;;4973870;28;20037;-79
2022/08/24 01:11:00;;;;;;;6.25;2.75;;;20.40;66.30;;;;;;4973387;28;20087;-80
2022/08/24 01:13:26;;;;;;;4.97;3.05;;;20.40;66.80;;;;;;4983229;28;20035;-80
2022/08/24 01:15:53;;;;;;;9.35;4.82;;;20.30;68.90;;;;;;4973278;28;20037;-80
2022/08/24 01:21:14;;;;;;;7.53;3.17;;;20.10;68.60;;;;;;4979685;28;20560;-80
2022/08/24 01:23:42;;;;;;;3.38;2.17;;;20.20;68.00;;;;;;4967444;28;20273;-79
2022/08/24 01:26:11;;;;;;;6.95;3.60;;;20.20;69.30;;;;;;4972374;28;20111;-80
2022/08/24 01:28:38;;;;;;;7.25;4.43;;;20.20;69.30;;;;;;4965934;28;20445;-80
2022/08/24 01:31:04;;;;;;;5.80;3.80;;;20.20;67.70;;;;;;4956928;28;20477;-79
2022/08/24 01:33:30;;;;;;;8.75;4.07;;;20.10;70.30;;;;;;4969371;28;20041;-79
2022/08/24 01:36:05;;;;;;;5.80;3.85;;;20.00;68.70;;;;;;4979703;28;20142;-79
2022/08/24 01:38:32;;;;;;;6.32;3.20;;;20.00;68.00;;;;;;4980804;28;20528;-80
2022/08/24 01:41:00;;;;;;;6.35;3.78;;;20.00;68.00;;;;;;4950932;28;20061;-79
2022/08/24 01:43:26;;;;;;;6.07;3.05;;;19.90;68.00;;;;;;4967170;28;20026;-79
2022/08/24 01:45:52;;;;;;;6.22;3.75;;;19.90;68.20;;;;;;4982132;28;20656;-79
2022/08/24 01:48:19;;;;;;;4.43;2.85;;;19.80;67.80;;;;;;4963802;28;20046;-80
2022/08/24 01:50:44;;;;;;;9.18;3.35;;;19.80;69.10;;;;;;4955285;28;20100;-80
2022/08/24 01:53:10;;;;;;;3.75;2.90;;;19.80;67.90;;;;;;4971798;28;20558;-80
2022/08/24 01:55:35;;;;;;;3.97;2.88;;;19.80;68.40;;;;;;4958819;28;20580;-80
2022/08/24 01:58:01;;;;;;;6.53;3.50;;;19.70;68.00;;;;;;4969156;28;20046;-79
2022/08/24 02:00:27;;;;;;;4.40;3.50;;;19.60;67.90;;;;;;4987154;28;20485;-79
2022/08/24 02:02:54;;;;;;;5.82;3.88;;;19.60;70.70;;;;;;4978719;28;20099;-79
2022/08/24 02:05:19;;;;;;;6.18;3.42;;;19.50;70.60;;;;;;4966603;28;20041;-79
2022/08/24 02:07:45;;;;;;;3.03;2.80;;;19.50;69.20;;;;;;4967055;28;20034;-81
2022/08/24 02:10:12;;;;;;;2.15;1.80;;;19.60;70.40;;;;;;4967675;28;20083;-79
2022/08/24 02:12:39;;;;;;;7.25;2.95;;;19.50;69.20;;;;;;4974245;28;20061;-83
2022/08/24 02:15:06;;;;;;;2.22;1.75;;;19.50;69.20;;;;;;4955969;28;20109;-79
2022/08/24 02:17:33;;;;;;;3.47;2.40;;;19.50;69.60;;;;;;4987331;28;20087;-79
2022/08/24 02:19:59;;;;;;;6.88;3.85;;;19.50;71.30;;;;;;4969633;28;20489;-80
2022/08/24 02:22:25;;;;;;;5.18;3.20;;;19.40;69.80;;;;;;4962531;28;20030;-79
2022/08/24 02:24:50;;;;;;;4.72;3.15;;;19.30;69.90;;;;;;4952036;28;20037;-80
2022/08/24 02:27:16;;;;;;;4.15;3.30;;;19.20;70.20;;;;;;4967362;28;20123;-79
2022/08/24 02:29:42;;;;;;;3.40;2.60;;;19.20;69.70;;;;;;4957255;28;20061;-80
2022/08/24 02:32:07;;;;;;;4.45;2.35;;;19.20;71.80;;;;;;4980811;28;20398;-80
2022/08/24 02:34:33;;;;;;;12.38;4.32;;;19.20;70.80;;;;;;4972676;28;20026;-80
2022/08/24 02:36:59;;;;;;;3.40;2.40;;;19.20;70.10;;;;;;4983424;28;20044;-79
2022/08/24 02:39:25;;;;;;;4.78;2.95;;;19.20;70.10;;;;;;4969049;28;20109;-80
2022/08/24 02:41:51;;;;;;;5.93;3.70;;;19.10;69.90;;;;;;4948309;28;20138;-79
2022/08/24 02:44:16;;;;;;;4.47;3.03;;;19.00;74.00;;;;;;4967009;28;20049;-80
2022/08/24 02:46:42;;;;;;;3.88;2.72;;;19.00;76.20;;;;;;4940933;28;20026;-79
2022/08/24 02:49:07;;;;;;;4.43;2.30;;;19.00;70.70;;;;;;4966343;28;20180;-79
2022/08/24 02:51:33;;;;;;;5.65;2.47;;;19.10;71.50;;;;;;4973103;28;20697;-82
2022/08/24 02:53:59;;;;;;;4.05;3.08;;;19.20;72.90;;;;;;4950538;28;20064;-83
2022/08/24 02:56:25;;;;;;;3.92;2.25;;;19.20;71.20;;;;;;4968890;28;20030;-81
2022/08/24 02:58:51;;;;;;;2.95;2.33;;;19.00;70.80;;;;;;4966739;28;20034;-83
2022/08/24 03:01:17;;;;;;;3.58;2.05;;;18.90;71.00;;;;;;4971733;28;20040;-83
2022/08/24 03:03:43;;;;;;;3.75;2.42;;;18.90;71.60;;;;;;4968590;28;20457;-83
2022/08/24 03:06:09;;;;;;;5.55;3.50;;;18.90;71.60;;;;;;4969277;28;20069;-83
2022/08/24 03:08:35;;;;;;;4.57;3.80;;;18.90;71.00;;;;;;4953855;28;20053;-83
2022/08/24 03:11:00;;;;;;;8.15;4.60;;;18.70;71.10;;;;;;4951982;28;20052;-83
2022/08/24 03:13:27;;;;;;;5.55;3.67;;;18.70;71.10;;;;;;4983128;28;20088;-83
2022/08/24 03:15:54;;;;;;;6.90;3.63;;;18.60;71.20;;;;;;4963845;28;20027;-83
2022/08/24 03:18:21;;;;;;;7.78;3.83;;;18.60;71.00;;;;;;4979327;28;20038;-83
2022/08/24 03:20:48;;;;;;;5.95;3.35;;;18.60;71.10;;;;;;4971368;28;20373;-83
2022/08/24 03:23:14;;;;;;;6.13;3.35;;;18.60;71.20;;;;;;4972575;28;20132;-82
2022/08/24 03:25:40;;;;;;;3.95;3.45;;;18.50;71.10;;;;;;4983822;28;20029;-81
2022/08/24 03:28:06;;;;;;;6.53;3.67;;;18.50;71.20;;;;;;4949657;28;20482;-82
2022/08/24 03:30:31;;;;;;;9.82;4.75;;;18.40;71.00;;;;;;4983332;28;20482;-82
2022/08/24 03:32:57;;;;;;;7.95;3.80;;;18.40;71.90;;;;;;4980758;28;20517;-82
2022/08/24 03:35:22;;;;;;;7.25;3.95;;;18.40;71.50;;;;;;4970202;28;20045;-82
2022/08/24 03:37:49;;;;;;;6.38;3.90;;;18.30;71.10;;;;;;4956814;28;20046;-83
2022/08/24 03:40:15;;;;;;;6.53;4.00;;;18.30;71.70;;;;;;4967138;28;20059;-81
2022/08/24 03:42:40;;;;;;;7.15;3.38;;;18.20;79.90;;;;;;4957383;28;20156;-82
2022/08/24 03:45:07;;;;;;;2.85;2.40;;;18.20;82.70;;;;;;4969118;28;20045;-83
2022/08/24 03:47:32;;;;;;;6.30;3.58;;;18.20;74.30;;;;;;4967892;28;20545;-82
2022/08/24 03:49:58;;;;;;;7.82;3.50;;;18.30;73.60;;;;;;4963964;28;20113;-82
2022/08/24 03:52:24;;;;;;;4.38;2.92;;;18.30;74.80;;;;;;4968945;28;20034;-83
2022/08/24 03:54:49;;;;;;;5.68;3.28;;;18.30;73.30;;;;;;4964076;28;20415;-82
2022/08/24 03:57:15;;;;;;;7.03;3.63;;;18.20;72.90;;;;;;4972980;28;20029;-82
2022/08/24 03:59:40;;;;;;;5.72;3.17;;;18.20;76.60;;;;;;4962593;28;20565;-83
2022/08/24 04:02:08;;;;;;;2.85;2.60;;;18.20;73.90;;;;;;4953706;28;20038;-83
2022/08/24 04:04:34;;;;;;;5.40;3.03;;;18.10;73.60;;;;;;4954047;28;20034;-82
2022/08/24 04:06:59;;;;;;;3.53;2.25;;;18.10;73.70;;;;;;4960888;28;20102;-82
2022/08/24 04:09:25;;;;;;;7.00;3.60;;;18.10;74.10;;;;;;4966509;28;20031;-82
2022/08/24 04:11:50;;;;;;;5.95;4.20;;;18.00;73.80;;;;;;4970859;28;20145;-83
2022/08/24 04:14:16;;;;;;;5.00;3.95;;;18.00;74.20;;;;;;4962041;28;20031;-83
2022/08/24 04:16:43;;;;;;;9.50;4.38;;;18.00;76.90;;;;;;4979658;28;20045;-82
2022/08/24 04:19:09;;;;;;;3.90;3.42;;;17.90;73.90;;;;;;4963676;28;20105;-83
2022/08/24 04:21:35;;;;;;;5.30;4.10;;;17.90;74.10;;;;;;4966960;28;20033;-82
2022/08/24 04:24:01;;;;;;;5.57;4.18;;;17.90;74.50;;;;;;4968816;28;20044;-82
2022/08/24 04:26:28;;;;;;;5.97;4.10;;;17.90;75.10;;;;;;4966408;28;20037;-82
2022/08/24 04:28:54;;;;;;;4.00;2.78;;;17.80;74.20;;;;;;4975499;28;20513;-83
2022/08/24 04:31:19;;;;;;;5.85;3.22;;;17.80;75.30;;;;;;4976206;28;20026;-83
2022/08/24 04:33:46;;;;;;;3.00;2.70;;;17.80;75.50;;;;;;4966888;28;20030;-82
2022/08/24 04:36:11;;;;;;;4.93;4.05;;;17.80;75.20;;;;;;4960685;28;20038;-82
2022/08/24 04:38:37;;;;;;;5.35;4.10;;;17.70;76.30;;;;;;4972064;28;20034;-82
2022/08/24 04:41:06;;;;;;;7.13;4.38;;;17.70;75.40;;;;;;4957507;28;20482;-81
2022/08/24 04:43:31;;;;;;;10.35;5.28;;;17.60;75.00;;;;;;4974888;28;20076;-81
2022/08/24 04:45:57;;;;;;;4.97;4.03;;;17.60;75.40;;;;;;4972348;28;20111;-82
2022/08/24 04:48:22;;;;;;;4.13;2.88;;;17.60;75.30;;;;;;4983261;28;20099;-81
2022/08/24 04:50:48;;;;;;;3.25;2.50;;;17.60;75.50;;;;;;4968356;28;20100;-82
2022/08/24 04:53:14;;;;;;;4.03;2.47;;;17.70;77.10;;;;;;4954479;28;20034;-82
2022/08/24 04:55:43;;;;;;;4.72;2.65;;;17.90;78.40;;;;;;4971940;28;20065;-83
2022/08/24 04:58:10;;;;;;;2.95;2.72;;;17.80;79.40;;;;;;4962967;28;20041;-81
2022/08/24 05:00:35;;;;;;;3.15;2.85;;;17.80;80.20;;;;;;4982623;28;20498;-82
2022/08/24 05:03:02;;;;;;;5.25;2.65;;;17.80;81.00;;;;;;4972068;28;20074;-81
2022/08/24 05:05:27;;;;;;;4.50;3.60;;;18.10;82.70;;;;;;4985177;28;20037;-81
2022/08/24 05:07:53;;;;;;;6.30;3.47;;;18.20;83.00;;;;;;4984036;28;20018;-82
2022/08/24 05:10:20;;;;;;;5.35;3.60;;;18.10;86.70;;;;;;4952702;28;20033;-81
2022/08/24 05:12:46;;;;;;;10.27;4.25;;;18.00;85.00;;;;;;4991005;28;20474;-82
2022/08/24 05:15:11;;;;;;;8.77;3.80;;;18.00;90.30;;;;;;4981933;28;20041;-83
2022/08/24 05:17:39;;;;;;;7.13;3.17;;;18.10;88.50;;;;;;4980721;28;20034;-82
2022/08/24 05:20:07;;;;;;;7.65;3.40;;;18.20;84.50;;;;;;4971186;28;20185;-82
2022/08/24 05:22:33;;;;;;;7.47;3.35;;;18.30;85.70;;;;;;4971771;28;20049;-81
2022/08/24 05:24:59;;;;;;;9.90;4.18;;;18.40;84.80;;;;;;4970289;28;20433;-82
2022/08/24 05:27:24;;;;;;;8.50;4.05;;;18.40;85.80;;;;;;4967734;28;20035;-81
2022/08/24 05:29:54;;;;;;;3.80;3.10;;;18.40;89.10;;;;;;4967674;28;20078;-83
2022/08/24 05:32:20;;;;;;;5.35;2.75;;;18.60;84.40;;;;;;4947818;28;20065;-82
2022/08/24 05:34:46;;;;;;;4.45;2.42;;;18.70;85.40;;;;;;4954364;28;20044;-81
2022/08/24 05:37:11;;;;;;;3.30;2.50;;;18.60;85.50;;;;;;4973736;28;20052;-81
2022/08/24 05:39:37;;;;;;;4.63;2.88;;;18.80;86.30;;;;;;4970257;28;20048;-80
2022/08/24 05:42:03;;;;;;;5.90;3.30;;;18.90;86.80;;;;;;4971458;28;20038;-82
2022/08/24 05:44:30;;;;;;;3.42;3.00;;;19.00;86.50;;;;;;4972547;28;20034;-82
2022/08/24 05:46:57;;;;;;;6.93;2.65;;;19.00;86.70;;;;;;4981901;28;20033;-81
2022/08/24 05:49:23;;;;;;;2.67;2.03;;;19.20;86.20;;;;;;4964862;28;20104;-81
2022/08/24 05:51:49;;;;;;;8.60;3.40;;;19.40;85.80;;;;;;4986009;28;20474;-81
2022/08/24 05:54:14;;;;;;;6.22;4.15;;;19.50;88.20;;;;;;4965938;28;20034;-80
2022/08/24 05:56:41;;;;;;;8.10;3.72;;;19.50;89.10;;;;;;4949458;28;20100;-81
2022/08/24 05:59:07;;;;;;;7.68;3.53;;;19.70;87.20;;;;;;4983013;28;20042;-81
2022/08/24 06:01:32;;;;;;;6.60;3.20;;;19.70;89.90;;;;;;4964684;28;20179;-82
2022/08/24 06:03:58;;;;;;;5.10;3.67;;;19.80;86.40;;;;;;4964526;28;20103;-81
2022/08/24 06:06:25;;;;;;;7.95;3.60;;;19.90;90.40;;;;;;4969238;28;20030;-81
2022/08/24 06:08:53;;;;;;;6.93;3.90;;;19.90;85.90;;;;;;4970380;28;20104;-81
2022/08/24 06:11:27;;;;;;;7.72;4.18;;;20.00;87.90;;;;;;4984564;28;20045;-81
2022/08/24 06:13:54;;;;;;;9.00;3.80;;;20.00;84.70;;;;;;4950432;28;20030;-79
2022/08/24 06:16:19;;;;;;;3.08;2.42;;;20.10;83.60;;;;;;4978859;28;20034;-81
2022/08/24 06:18:45;;;;;;;3.90;2.50;;;20.20;81.50;;;;;;4966908;28;20123;-80
2022/08/24 06:21:13;;;;;;;9.00;3.30;;;20.20;81.60;;;;;;4967750;28;20129;-81
2022/08/24 06:23:39;;;;;;;5.72;3.17;;;20.20;82.10;;;;;;4964378;28;20030;-81
2022/08/24 06:28:49;;;;;;;9.23;4.72;;;20.20;81.80;;;;;;4983301;28;20173;-79
2022/08/24 06:31:15;;;;;;;5.32;3.83;;;20.20;83.00;;;;;;4971186;28;20320;-80
2022/08/24 06:33:41;;;;;;;11.45;5.03;;;20.10;82.80;;;;;;4969911;28;20116;-79
2022/08/24 06:36:07;;;;;;;7.72;4.18;;;20.20;83.50;;;;;;4965450;28;20568;-80
2022/08/24 06:38:32;;;;;;;9.30;4.30;;;20.30;85.90;;;;;;4970243;28;20089;-80
2022/08/24 06:40:58;;;;;;;12.15;4.10;;;20.40;88.00;;;;;;4981015;28;20026;-80
2022/08/24 06:43:24;;;;;;;10.68;4.95;;;20.50;87.30;;;;;;4966397;28;20096;-80
2022/08/24 06:45:50;;;;;;;12.02;4.38;;;20.50;87.10;;;;;;4950019;28;20188;-80
2022/08/24 06:48:16;;;;;;;8.35;4.05;;;20.60;87.50;;;;;;4986282;28;20045;-80
2022/08/24 06:50:42;;;;;;;10.57;4.75;;;20.60;87.50;;;;;;4985467;28;20691;-80
2022/08/24 06:53:08;;;;;;;5.47;4.20;;;20.70;87.10;;;;;;4973573;28;20034;-80
2022/08/24 06:55:34;;;;;;;10.70;4.60;;;20.80;88.70;;;;;;4967029;28;20033;-81
2022/08/24 06:58:01;;;;;;;7.97;4.38;;;20.90;91.60;;;;;;4955002;28;20026;-82
2022/08/24 07:00:26;;;;;;;6.38;3.70;;;21.10;91.10;;;;;;4982294;28;20085;-81
2022/08/24 07:02:52;;;;;;;8.15;3.88;;;21.30;84.70;;;;;;4970750;28;20058;-81
2022/08/24 07:05:18;;;;;;;6.15;3.35;;;21.40;86.70;;;;;;4991147;28;20045;-81
2022/08/24 07:07:43;;;;;;;5.30;3.80;;;21.40;86.30;;;;;;4980155;28;20030;-81
2022/08/24 07:10:09;;;;;;;6.57;3.08;;;21.50;84.40;;;;;;4966401;28;20039;-81
2022/08/24 07:12:35;;;;;;;8.45;3.67;;;21.60;84.90;;;;;;4965794;28;20030;-82
2022/08/24 07:15:02;;;;;;;11.25;4.03;;;21.80;82.10;;;;;;4952824;28;20038;-81
2022/08/24 07:17:28;;;;;;;4.82;3.78;;;21.90;84.10;;;;;;4967361;28;20033;-82
2022/08/24 07:19:54;;;;;;;12.20;4.28;;;22.00;83.50;;;;;;4983308;28;20421;-81
2022/08/24 07:22:20;;;;;;;8.40;4.32;;;22.10;84.20;;;;;;4955405;28;20033;-82
2022/08/24 07:24:45;;;;;;;6.65;3.70;;;22.20;85.00;;;;;;4952114;28;20148;-82
2022/08/24 07:27:12;;;;;;;5.35;3.28;;;22.30;86.10;;;;;;4980586;28;20117;-82
2022/08/24 07:29:38;;;;;;;6.43;3.10;;;22.50;85.50;;;;;;4978985;28;20176;-82
2022/08/24 07:32:04;;;;;;;7.15;3.55;;;22.90;82.50;;;;;;4968092;28;20030;-82
2022/08/24 07:34:31;;;;;;;6.78;2.85;;;23.00;82.00;;;;;;4968902;28;20041;-82
2022/08/24 07:36:59;;;;;;;2.95;2.30;;;23.20;79.30;;;;;;4951907;28;20504;-83
2022/08/24 07:39:25;;;;;;;6.22;3.25;;;23.40;78.70;;;;;;4961534;28;20713;-84
2022/08/24 07:41:51;;;;;;;8.10;3.00;;;23.50;80.00;;;;;;4960321;28;20069;-83
2022/08/24 07:44:18;;;;;;;5.13;3.33;;;23.60;80.30;;;;;;4954796;28;20089;-82
2022/08/24 07:46:43;;;;;;;4.07;2.67;;;23.80;79.30;;;;;;4956345;28;20030;-83
2022/08/24 07:49:09;;;;;;;7.22;3.53;;;23.90;79.90;;;;;;4969214;28;20524;-83
2022/08/24 07:51:35;;;;;;;4.50;3.33;;;24.10;80.30;;;;;;4980589;28;20426;-83
2022/08/24 07:54:01;;;;;;;4.40;3.03;;;24.10;80.20;;;;;;4950356;28;20042;-83
2022/08/24 07:56:27;;;;;;;9.82;3.25;;;24.30;79.50;;;;;;4970336;28;20158;-83
2022/08/24 07:58:53;;;;;;;5.22;3.13;;;24.30;79.70;;;;;;4952780;28;20532;-83
2022/08/24 08:01:20;;;;;;;4.30;3.35;;;24.40;80.10;;;;;;4967144;28;20038;-83
2022/08/24 08:03:46;;;;;;;8.18;3.85;;;24.40;79.10;;;;;;4962760;28;20030;-83
2022/08/24 08:06:12;;;;;;;10.57;3.60;;;24.60;79.80;;;;;;4951017;28;20038;-84
2022/08/24 08:08:39;;;;;;;8.43;3.85;;;24.70;80.30;;;;;;4952683;28;20371;-82
2022/08/24 08:11:06;;;;;;;6.68;3.42;;;24.80;80.60;;;;;;4947582;28;20062;-83
2022/08/24 08:13:31;;;;;;;10.60;3.97;;;24.90;79.90;;;;;;4981368;28;20061;-83
2022/08/24 08:15:58;;;;;;;4.45;3.65;;;25.00;80.30;;;;;;4971742;28;20115;-83
2022/08/24 08:18:24;;;;;;;6.43;3.30;;;25.10;79.90;;;;;;4983610;28;20027;-83
2022/08/24 08:20:50;;;;;;;10.32;3.50;;;25.30;78.00;;;;;;4966652;28;20077;-84
2022/08/24 08:26:03;;;;;;;6.75;3.45;;;25.70;76.20;;;;;;4988763;28;20470;-83
2022/08/24 08:28:32;;;;;;;10.43;3.30;;;25.80;77.70;;;;;;4971255;28;20037;-83
2022/08/24 08:31:03;;;;;;;5.10;3.17;;;26.00;76.90;;;;;;4963285;28;20180;-83
2022/08/24 08:33:29;;;;;;;8.18;3.25;;;26.20;73.50;;;;;;4982324;28;20026;-83
2022/08/24 08:36:00;;;;;;;5.18;3.10;;;26.40;73.20;;;;;;4962507;28;20042;-82
2022/08/24 08:38:26;;;;;;;8.05;2.83;;;26.50;74.20;;;;;;4963269;28;20113;-81
2022/08/24 08:41:20;;;;;;;7.40;2.45;;;26.60;75.30;;;;;;4981634;28;20521;-83
2022/08/24 08:44:42;;;;;;;10.52;3.00;;;26.90;69.40;;;;;;4980417;28;20037;-83
2022/08/24 08:47:36;;;;;;;3.70;2.40;;;27.00;73.00;;;;;;4903564;29;20028;-82
2022/08/24 08:50:20;;;;;;;7.28;3.30;;;26.90;73.40;;;;;;4901259;29;20048;-82
2022/08/24 08:53:04;;;;;;;7.13;3.00;;;27.10;70.90;;;;;;4957054;28;20030;-83
2022/08/24 08:56:08;;;;;;;3.13;2.72;;;27.10;70.00;;;;;;4998901;28;20142;-83
2022/08/24 08:58:42;;;;;;;9.63;3.05;;;27.20;70.90;;;;;;4986941;28;20597;-83
2022/08/24 09:01:39;;;;;;;4.90;2.83;;;27.30;69.70;;;;;;4994677;28;20524;-83
2022/08/24 09:04:10;;;;;;;11.68;3.38;;;27.50;70.00;;;;;;4963387;28;20504;-81
2022/08/24 09:06:48;;;;;;;3.78;2.75;;;27.70;70.40;;;;;;4978810;28;20046;-83
2022/08/24 09:09:14;;;;;;;5.68;2.95;;;27.80;69.20;;;;;;4993108;28;20143;-83
2022/08/24 09:12:00;;;;;;;3.72;3.03;;;28.00;69.20;;;;;;4980929;28;20347;-84
2022/08/24 09:14:41;;;;;;;6.53;2.70;;;28.30;68.60;;;;;;4979818;28;20050;-83
2022/08/24 09:17:25;;;;;;;5.65;2.60;;;28.30;68.20;;;;;;4978981;28;20050;-83
2022/08/24 09:20:06;;;;;;;3.70;1.98;;;28.40;67.90;;;;;;4978274;28;20457;-83
2022/08/24 09:22:37;;;;;;;5.10;2.88;;;29.00;66.70;;;;;;4968670;28;20053;-83
2022/08/24 09:25:31;;;;;;;4.88;2.90;;;29.20;66.60;;;;;;4969382;28;20035;-84
2022/08/24 09:28:16;;;;;;;8.35;3.17;;;29.60;65.60;;;;;;4958238;28;20042;-84
2022/08/24 09:31:08;;;;;;;5.18;2.65;;;29.50;65.20;;;;;;4988231;28;20493;-84
2022/08/24 09:33:52;;;;;;;9.35;3.75;;;29.60;66.40;;;;;;4965919;28;20469;-82
2022/08/24 09:36:31;;;;;;;10.05;2.83;;;29.80;64.90;;;;;;4965393;28;20505;-83
2022/08/24 09:39:15;;;;;;;8.02;3.00;;;30.00;63.80;;;;;;4970409;28;20042;-83
2022/08/24 09:41:50;;;;;;;8.85;3.40;;;30.10;62.40;;;;;;4970160;28;20484;-83
2022/08/24 09:44:51;;;;;;;9.93;3.03;;;30.10;61.80;;;;;;4985531;28;20038;-83
2022/08/24 09:47:55;;;;;;;8.77;2.80;;;30.50;62.80;;;;;;4966303;28;20034;-83
2022/08/24 09:50:26;;;;;;;4.82;2.83;;;30.40;60.50;;;;;;4967028;28;20401;-83
2022/08/24 09:53:30;;;;;;;5.45;2.53;;;30.50;59.90;;;;;;4996524;28;20097;-85
2022/08/24 09:56:14;;;;;;;3.80;2.50;;;30.70;57.70;;;;;;4966284;28;21135;-85
2022/08/24 09:58:58;;;;;;;7.80;2.80;;;30.80;57.40;;;;;;5004663;28;20518;-83
2022/08/24 10:01:38;;;;;;;11.27;2.90;;;30.80;56.60;;;;;;4995966;28;20458;-84
2022/08/24 10:04:13;;;;;;;8.10;2.50;;;30.80;58.00;;;;;;4969600;28;20172;-83
2022/08/24 10:06:48;;;;;;;7.53;2.30;;;31.00;56.60;;;;;;4990691;28;20564;-83
2022/08/24 10:09:47;;;;;;;6.85;2.60;;;31.10;57.80;;;;;;4967689;28;20046;-82
2022/08/24 10:12:34;;;;;;;7.70;2.45;;;31.20;56.90;;;;;;4963575;28;20049;-80
2022/08/24 10:15:06;;;;;;;6.60;2.80;;;31.30;57.20;;;;;;4988091;28;20091;-83
2022/08/24 10:17:41;;;;;;;6.97;2.70;;;31.50;58.00;;;;;;4964944;28;20055;-85
2022/08/24 10:20:11;;;;;;;3.50;2.80;;;31.50;56.90;;;;;;4968208;28;20158;-83
2022/08/24 10:22:55;;;;;;;7.55;3.00;;;31.60;56.70;;;;;;4969939;28;20036;-84
2022/08/24 10:25:44;;;;;;;7.30;2.90;;;31.60;56.70;;;;;;4976468;28;20431;-84
2022/08/24 10:28:30;;;;;;;7.75;2.40;;;31.70;56.70;;;;;;4944705;28;20117;-84
2022/08/24 10:31:03;;;;;;;4.72;2.30;;;31.80;55.40;;;;;;4964514;28;20416;-84
2022/08/24 10:33:53;;;;;;;8.50;2.70;;;32.30;57.20;;;;;;4968244;28;20076;-85
2022/08/24 10:36:40;;;;;;;6.30;2.78;;;32.10;54.50;;;;;;4974956;28;20093;-85
2022/08/24 10:39:44;;;;;;;3.30;2.20;;;32.10;54.80;;;;;;4986225;28;20446;-85
2022/08/24 10:43:32;;;;;;;5.60;2.58;;;32.10;56.60;;;;;;4986764;28;20156;-86
2022/08/24 10:45:04;;;;;;;8.50;2.67;;;32.50;53.40;;;;;;4996454;28;20042;-86
2022/08/24 10:47:30;;;;;;;13.73;10.73;;;32.80;56.00;;;;;;4985287;28;20056;-85
2022/08/24 10:50:09;;;;;;;13.65;10.18;;;32.90;55.90;;;;;;4982863;28;20427;-85
2022/08/24 10:52:52;;;;;;;7.43;3.33;;;33.60;54.90;;;;;;4987906;28;20520;-84
2022/08/24 10:55:29;;;;;;;4.93;2.20;;;34.90;50.60;;;;;;4989265;28;20030;-87
2022/08/24 10:58:25;;;;;;;6.82;2.05;;;35.30;51.10;;;;;;4969679;28;20168;-87
2022/08/24 11:00:51;;;;;;;8.43;2.53;;;34.00;52.80;;;;;;4966887;28;20030;-85
2022/08/24 11:03:20;;;;;;;3.70;2.10;;;33.80;53.40;;;;;;4263928;28;10001050;-86
2022/08/24 11:05:52;;;;;;;7.68;2.05;;;34.80;52.30;;;;;;4966430;28;20033;-86
2022/08/24 11:08:20;;;;;;;7.10;2.35;;;35.10;51.90;;;;;;4969641;28;20081;-84
2022/08/24 11:10:46;;;;;;;2.25;2.10;;;35.20;50.60;;;;;;4977656;28;20393;-85
2022/08/24 11:13:24;;;;;;;7.63;2.22;;;35.50;49.80;;;;;;4964526;28;20045;-86
2022/08/24 11:15:54;;;;;;;4.97;1.90;;;36.30;49.00;;;;;;4929367;28;20074;-82
2022/08/24 11:18:21;;;;;;;2.00;1.70;;;35.10;51.20;;;;;;4964960;28;20145;-82
2022/08/24 11:20:47;;;;;;;4.05;2.05;;;35.30;50.50;;;;;;4947244;28;20394;-83
2022/08/24 11:23:34;;;;;;;2.80;1.92;;;35.30;50.90;;;;;;4967412;28;20050;-85
2022/08/24 11:26:14;;;;;;;2.33;1.90;;;35.90;49.50;;;;;;4979749;28;20829;-86
2022/08/24 11:28:44;;;;;;;3.90;2.17;;;36.60;47.70;;;;;;4948791;28;20486;-85
2022/08/24 11:31:11;;;;;;;4.60;3.92;;;35.90;49.60;;;;;;4964963;28;20111;-87
2022/08/24 11:33:48;;;;;;;4.72;2.30;;;35.80;49.60;;;;;;4962558;28;20041;-87
2022/08/24 11:36:16;;;;;;;4.38;2.28;;;35.50;49.70;;;;;;4966983;28;20096;-87
2022/08/24 11:38:41;;;;;;;2.20;1.75;;;35.10;49.50;;;;;;4962400;28;20029;-86
2022/08/24 11:41:13;;;;;;;3.47;2.42;;;35.70;50.60;;;;;;4980857;28;20096;-84
2022/08/24 11:44:17;;;;;;;6.53;2.83;;;35.80;49.90;;;;;;4973785;28;20057;-84
2022/08/24 11:47:34;;;;;;;6.20;2.25;;;35.80;48.00;;;;;;4972044;28;20121;-82
2022/08/24 11:50:02;;;;;;;;;;;35.60;47.80;;;;;;4946540;28;20492;-84
2022/08/24 11:52:32;;;;;;;5.65;1.95;;;35.80;49.80;;;;;;4969454;28;19917;-84
2022/08/24 11:55:22;;;;;;;4.03;2.20;;;36.40;48.50;;;;;;4966803;28;20037;-83
2022/08/24 11:57:56;;;;;;;2.95;2.05;;;37.60;47.30;;;;;;4982433;28;20413;-85
2022/08/24 12:00:23;;;;;;;5.13;1.80;;;37.30;47.90;;;;;;4963550;28;20524;-85
2022/08/24 12:02:59;;;;;;;5.10;2.05;;;37.90;46.80;;;;;;4633452;28;10000122;-84
2022/08/24 12:05:45;;;;;;;3.53;2.00;;;37.60;46.60;;;;;;4976191;28;20050;-85
2022/08/24 12:08:50;;;;;;;5.43;2.20;;;38.60;44.60;;;;;;4992843;28;20070;-86
2022/08/24 12:11:43;;;;;;;4.43;2.70;;;39.50;41.50;;;;;;4909240;29;20035;-85
2022/08/24 12:14:13;;;;;;;7.72;2.67;;;38.50;43.90;;;;;;4939454;28;20035;-86
2022/08/24 12:16:47;;;;;;;5.35;2.50;;;37.40;44.30;;;;;;4952983;28;20037;-85
2022/08/24 12:19:16;;;;;;;2.80;1.95;;;37.10;45.20;;;;;;4983526;28;20073;-83
2022/08/24 12:21:44;;;;;;;2.55;2.05;;;37.00;47.30;;;;;;4963643;28;20477;-85
2022/08/24 12:24:19;;;;;;;6.40;2.20;;;37.10;46.60;;;;;;4956891;28;20039;-86
2022/08/24 12:27:06;;;;;;;4.70;2.35;;;38.10;44.40;;;;;;4947177;28;20353;-84
2022/08/24 12:30:02;;;;;;;4.55;2.05;;;39.20;43.00;;;;;;4968590;28;20149;-84
2022/08/24 12:32:41;;;;;;;6.05;2.25;;;38.20;43.50;;;;;;4965341;28;20521;-82
2022/08/24 12:35:30;;;;;;;7.60;2.55;;;37.80;43.20;;;;;;4979115;28;20053;-84
2022/08/24 12:38:09;;;;;;;5.45;2.33;;;37.20;44.20;;;;;;4978981;28;20049;-83
2022/08/24 12:40:40;;;;;;;4.95;2.60;;;37.00;43.60;;;;;;4981543;28;20049;-86
2022/08/24 12:43:07;;;;;;;4.45;2.22;;;37.60;44.70;;;;;;4962885;28;20068;-85
2022/08/24 12:45:34;;;;;;;2.22;2.03;;;37.10;43.00;;;;;;4975565;28;20038;-85
2022/08/24 12:48:14;;;;;;;2.25;1.63;;;37.70;44.30;;;;;;4966204;28;20037;-83
2022/08/24 12:50:59;;;;;;;2.80;2.08;;;37.60;45.60;;;;;;4982344;28;20462;-85
2022/08/24 12:53:55;;;;;;;16.15;2.78;;;37.50;43.60;;;;;;4995980;28;20055;-84
2022/08/24 12:56:41;;;;;;;9.15;2.53;;;37.50;45.50;;;;;;4978499;28;20038;-82
2022/08/24 12:59:10;;;;;;;6.65;2.63;;;37.30;44.30;;;;;;4987170;28;20468;-84
2022/08/24 13:01:39;;;;;;;3.88;2.67;;;37.10;42.80;;;;;;5000690;28;20255;-83
2022/08/24 13:04:09;;;;;;;7.22;2.38;;;37.10;44.30;;;;;;4958179;28;20042;-83
2022/08/24 13:07:05;;;;;;;7.10;2.25;;;37.10;44.00;;;;;;4984882;28;20030;-83
2022/08/24 13:09:34;;;;;;;3.97;2.15;;;37.10;43.10;;;;;;4960898;28;20722;-83
2022/08/24 13:12:37;;;;;;;5.85;2.75;;;37.20;43.50;;;;;;4981106;28;20389;-81
2022/08/24 13:15:21;;;;;;;3.08;2.50;;;37.30;43.20;;;;;;5000909;28;20539;-84